Time;durP1;ratioP1;P1;durP2;ratioP2;P2;SDS_P1;SDS_P2;PMS_P1;PMS_P2;Temp;Humidity;BMP_temperature;BMP_pressure;BME280_temperature;BME280_humidity;BME280_pressure;Samples;Min_cycle;Max_cycle;Signal;HPM_P1;HPM_P2
2021/11/13 00:02:14;;;;;;;48.28;30.97;;;;;;;5.91;91.98;100286.92;2947208;80;21014;-75
2021/11/13 00:06:16;;;;;;;53.52;33.60;;;;;;;5.85;92.29;100282.86;2949654;80;20995;-75
2021/11/13 00:10:26;;;;;;;51.20;29.85;;;;;;;5.83;92.33;100277.66;2949575;80;21534;-76
2021/11/13 00:14:24;;;;;;;48.35;28.42;;;;;;;5.72;92.78;100277.02;2948562;80;21092;-75
2021/11/13 00:18:26;;;;;;;51.30;30.08;;;;;;;5.56;93.70;100285.48;2949386;80;21034;-75
2021/11/13 00:22:28;;;;;;;43.98;29.00;;;;;;;5.51;94.19;100284.47;2949499;80;20993;-75
2021/11/13 00:26:30;;;;;;;52.03;30.25;;;;;;;5.64;93.81;100279.29;2949685;80;21781;-75
2021/11/13 00:30:31;;;;;;;48.02;32.55;;;;;;;5.57;93.95;100277.95;2949904;80;21017;-75
2021/11/13 00:34:33;;;;;;;44.98;28.65;;;;;;;5.41;94.95;100269.67;2949448;80;21014;-75
2021/11/13 00:38:35;;;;;;;53.10;28.25;;;;;;;5.29;95.77;100267.76;2949308;80;20995;-76
2021/11/13 00:42:37;;;;;;;46.92;30.37;;;;;;;5.33;95.24;100273.71;2949578;80;21517;-75
2021/11/13 00:46:38;;;;;;;53.33;30.68;;;;;;;5.33;95.05;100272.39;2949214;80;21026;-75
2021/11/13 00:50:40;;;;;;;46.20;30.05;;;;;;;5.39;95.05;100273.33;2949174;80;21065;-75
2021/11/13 00:54:41;;;;;;;46.42;28.80;;;;;;;5.63;94.10;100264.85;2949531;80;20963;-75
2021/11/13 00:58:43;;;;;;;48.85;32.03;;;;;;;5.76;92.98;100257.88;2949616;80;21049;-76
2021/11/13 01:02:46;;;;;;;43.08;26.50;;;;;;;5.90;92.33;100250.91;2877328;80;21034;-75
2021/11/13 01:06:49;;;;;;;40.15;25.95;;;;;;;5.92;91.67;100252.97;2872141;81;21083;-75
2021/11/13 01:10:52;;;;;;;44.15;26.48;;;;;;;5.93;91.33;100249.38;2854088;83;21078;-75
2021/11/13 01:14:53;;;;;;;43.90;25.48;;;;;;;5.80;91.52;100247.99;2872510;81;21057;-75
2021/11/13 01:18:56;;;;;;;46.10;28.95;;;;;;;5.55;92.55;100238.94;2871914;82;21000;-75
2021/11/13 01:22:59;;;;;;;51.05;30.62;;;;;;;5.29;93.62;100234.79;2854404;83;21047;-75
2021/11/13 01:27:01;;;;;;;41.18;28.38;;;;;;;5.26;93.80;100231.86;2853973;83;21051;-75
2021/11/13 01:31:06;;;;;;;45.23;27.60;;;;;;;5.34;93.74;100227.92;2854337;83;21015;-75
2021/11/13 01:35:08;;;;;;;44.20;28.23;;;;;;;5.47;92.65;100226.21;2872107;82;21571;-75
2021/11/13 01:39:09;;;;;;;46.25;26.12;;;;;;;5.57;91.93;100222.08;2872535;81;21475;-75
2021/11/13 01:43:11;;;;;;;42.45;28.05;;;;;;;5.69;91.35;100220.91;2854243;83;21026;-75
2021/11/13 01:47:13;;;;;;;56.13;30.82;;;;;;;5.75;90.49;100219.23;2854508;83;21062;-75
2021/11/13 01:51:25;;;;;;;45.23;29.30;;;;;;;5.81;90.00;100207.45;2854444;83;21093;-75
2021/11/13 01:55:29;;;;;;;44.05;26.40;;;;;;;5.84;89.49;100209.40;2872384;82;21047;-75
2021/11/13 01:59:30;;;;;;;47.85;27.07;;;;;;;5.55;90.31;100199.35;2874196;80;21073;-75
2021/11/13 02:03:32;;;;;;;46.75;29.00;;;;;;;5.33;91.47;100209.08;2902897;81;21029;-75
2021/11/13 02:07:33;;;;;;;51.83;25.72;;;;;;;5.13;92.46;100204.06;2903201;82;21415;-74
2021/11/13 02:11:35;;;;;;;48.00;29.42;;;;;;;5.03;93.47;100204.72;2902737;82;21058;-75
2021/11/13 02:15:37;;;;;;;39.58;24.02;;;;;;;4.99;93.97;100196.13;2903065;82;21022;-75
2021/11/13 02:19:39;;;;;;;45.80;25.30;;;;;;;4.91;94.22;100195.27;2851188;83;21328;-75
2021/11/13 02:23:44;;;;;;;44.42;29.10;;;;;;;4.91;93.85;100196.59;2903258;82;21086;-75
2021/11/13 02:27:46;;;;;;;51.50;31.42;;;;;;;5.04;93.77;100187.95;2951359;80;21105;-75
2021/11/13 02:31:48;;;;;;;43.87;29.35;;;;;;;4.97;94.30;100186.16;2951305;80;21010;-75
2021/11/13 02:35:53;;;;;;;41.88;27.40;;;;;;;4.94;94.23;100179.30;2951418;80;21006;-75
2021/11/13 02:39:55;;;;;;;47.27;28.63;;;;;;;4.85;94.62;100171.92;2951717;80;20967;-75
2021/11/13 02:43:58;;;;;;;48.38;26.10;;;;;;;4.77;95.01;100169.73;2951651;80;21018;-75
2021/11/13 02:48:03;;;;;;;56.50;31.73;;;;;;;4.72;95.32;100167.86;2951461;80;21042;-74
2021/11/13 02:52:05;;;;;;;47.55;30.00;;;;;;;4.62;95.98;100170.19;2951913;80;21014;-75
2021/11/13 03:00:12;;;;;;;47.15;30.32;;;;;;;4.63;95.59;100170.56;2950607;80;21074;-75
2021/11/13 03:04:15;;;;;;;38.75;29.00;;;;;;;4.56;96.55;100166.61;2946268;80;21019;-75
2021/11/13 03:08:27;;;;;;;50.15;29.30;;;;;;;4.73;95.84;100163.45;2946237;80;22056;-75
2021/11/13 03:12:28;;;;;;;45.23;27.40;;;;;;;4.81;95.43;100163.83;2946161;80;20990;-74
2021/11/13 03:16:30;;;;;;;56.30;32.35;;;;;;;4.87;94.24;100158.17;2946187;80;20987;-75
2021/11/13 03:20:32;;;;;;;41.83;29.85;;;;;;;4.97;93.37;100158.47;2946030;80;21078;-75
2021/11/13 03:24:34;;;;;;;43.55;27.27;;;;;;;5.02;92.19;100147.66;2946438;80;20959;-74
2021/11/13 03:28:40;;;;;;;50.05;30.00;;;;;;;4.94;91.82;100151.61;2946623;80;20963;-75
2021/11/13 03:32:42;;;;;;;46.20;29.10;;;;;;;4.86;92.13;100148.13;2946796;80;20994;-75
2021/11/13 03:36:44;;;;;;;47.58;30.97;;;;;;;4.85;92.58;100157.42;2946900;80;21041;-75
2021/11/13 03:40:48;;;;;;;51.55;31.42;;;;;;;5.06;91.70;100158.38;2947025;80;20967;-75
2021/11/13 03:44:51;;;;;;;38.63;28.17;;;;;;;5.13;90.09;100152.64;2946847;80;20963;-75
2021/11/13 03:48:53;;;;;;;39.48;26.30;;;;;;;5.16;89.26;100156.89;2946941;80;21042;-75
2021/11/13 03:52:56;;;;;;;46.00;29.15;;;;;;;5.04;89.69;100157.17;2946875;80;21030;-75
2021/11/13 03:56:58;;;;;;;47.88;28.45;;;;;;;4.84;90.46;100151.78;2947090;80;21011;-75
2021/11/13 04:01:00;;;;;;;46.42;28.42;;;;;;;4.99;90.36;100163.17;2946699;80;21046;-74
2021/11/13 04:05:02;;;;;;;44.93;29.50;;;;;;;5.09;89.88;100159.05;2947011;80;21014;-73
2021/11/13 04:09:03;;;;;;;43.40;29.23;;;;;;;5.21;89.03;100162.73;2946510;80;21026;-75
2021/11/13 04:13:06;;;;;;;51.40;27.93;;;;;;;5.34;88.63;100161.98;2946616;80;20991;-75
2021/11/13 04:17:09;;;;;;;47.48;27.48;;;;;;;5.48;87.87;100159.80;2946626;80;21038;-74
2021/11/13 04:21:11;;;;;;;33.95;27.02;;;;;;;5.36;85.13;100165.37;2946795;80;21011;-74
2021/11/13 04:25:13;;;;;;;49.98;31.25;;;;;;;5.03;84.17;100177.03;2946622;80;21502;-75
2021/11/13 04:29:15;;;;;;;66.62;39.73;;;;;;;4.55;85.86;100194.72;2946414;80;21069;-74
2021/11/13 04:33:16;;;;;;;64.03;41.20;;;;;;;4.19;87.66;100199.84;2946389;80;21054;-74
2021/11/13 04:37:18;;;;;;;64.20;43.58;;;;;;;3.81;89.76;100194.48;2946239;80;20978;-74
2021/11/13 04:41:20;;;;;;;62.43;38.35;;;;;;;3.70;90.34;100198.16;2946257;80;21565;-74
2021/11/13 04:45:22;;;;;;;64.55;39.15;;;;;;;3.56;91.64;100200.23;2946550;80;21011;-75
2021/11/13 04:49:24;;;;;;;69.45;39.00;;;;;;;3.53;91.87;100205.17;2946085;80;21046;-74
2021/11/13 04:53:26;;;;;;;57.00;35.55;;;;;;;3.50;92.36;100202.72;2945958;80;21061;-74
2021/11/13 04:57:28;;;;;;;71.90;40.67;;;;;;;3.50;92.75;100210.61;2946342;80;21010;-74
2021/11/13 05:01:29;;;;;;;62.43;38.28;;;;;;;3.56;92.52;100213.38;2928347;80;21061;-74
2021/11/13 05:05:31;;;;;;;61.53;39.33;;;;;;;3.65;92.25;100216.84;2893107;82;21062;-74
2021/11/13 05:09:32;;;;;;;75.87;45.98;;;;;;;3.73;91.62;100215.57;2892447;82;21044;-74
2021/11/13 05:13:34;;;;;;;66.80;42.65;;;;;;;3.76;90.85;100216.26;2840931;83;21575;-74
2021/11/13 05:17:37;;;;;;;58.17;37.48;;;;;;;3.65;90.85;100214.67;2892916;82;20991;-74
2021/11/13 05:21:39;;;;;;;57.83;39.05;;;;;;;3.53;91.15;100220.13;2893046;82;21015;-74
2021/11/13 05:25:40;;;;;;;71.77;41.25;;;;;;;3.40;91.67;100232.59;2892968;82;21094;-74
2021/11/13 05:29:42;;;;;;;68.70;37.25;;;;;;;3.29;92.46;100229.70;2892702;81;21101;-74
2021/11/13 05:33:44;;;;;;;61.02;36.55;;;;;;;3.23;92.93;100240.07;2892705;82;21047;-74
2021/11/13 05:37:48;;;;;;;56.10;36.05;;;;;;;3.26;92.89;100233.33;2892925;82;21089;-74
2021/11/13 05:41:50;;;;;;;59.80;37.90;;;;;;;3.26;92.59;100243.84;2892779;81;21026;-74
2021/11/13 05:45:52;;;;;;;56.77;33.88;;;;;;;3.28;92.68;100248.56;2892604;82;21079;-74
2021/11/13 05:49:54;;;;;;;57.78;34.00;;;;;;;3.29;92.81;100263.88;2893068;82;21038;-73
2021/11/13 05:53:56;;;;;;;54.00;33.30;;;;;;;3.27;92.64;100244.23;2840760;83;21042;-74
2021/11/13 05:57:58;;;;;;;56.13;35.25;;;;;;;3.32;92.52;100258.46;2892464;82;21049;-74
2021/11/13 06:01:59;;;;;;;57.43;33.83;;;;;;;3.36;92.36;100251.27;2832894;83;21039;-73
2021/11/13 06:06:01;;;;;;;56.50;34.15;;;;;;;3.43;92.10;100255.27;2871473;83;21110;-73
2021/11/13 06:10:04;;;;;;;53.58;32.75;;;;;;;3.46;92.29;100268.25;2820557;83;21035;-75
2021/11/13 06:14:06;;;;;;;54.10;32.93;;;;;;;3.54;92.17;100266.53;2828487;84;21035;-75
2021/11/13 06:18:07;;;;;;;46.02;31.80;;;;;;;3.52;92.13;100270.55;2875722;82;21038;-75
2021/11/13 06:22:09;;;;;;;45.88;31.02;;;;;;;3.69;92.25;100279.33;2875043;82;21054;-74
2021/11/13 06:26:11;;;;;;;52.50;32.05;;;;;;;3.74;91.80;100282.59;2875625;82;21043;-74
2021/11/13 06:30:15;;;;;;;57.27;33.67;;;;;;;3.86;91.52;100278.45;2875290;81;21101;-75
2021/11/13 06:34:17;;;;;;;52.30;34.35;;;;;;;3.95;91.62;100282.36;2875932;82;21035;-74
2021/11/13 06:38:18;;;;;;;43.65;30.65;;;;;;;4.17;91.69;100291.72;2875504;82;21070;-75
2021/11/13 06:42:20;;;;;;;55.88;32.53;;;;;;;4.21;90.28;100291.92;2875411;82;21046;-75
2021/11/13 06:46:22;;;;;;;48.42;31.90;;;;;;;4.28;90.27;100290.64;2875580;82;21076;-74
2021/11/13 06:50:23;;;;;;;53.15;32.88;;;;;;;4.31;90.26;100288.31;2875566;82;21052;-74
2021/11/13 06:54:25;;;;;;;53.87;32.93;;;;;;;4.39;90.08;100298.80;2875481;82;21418;-74
2021/11/13 06:58:27;;;;;;;58.83;33.53;;;;;;;4.38;89.73;100291.84;2874254;82;21052;-75
2021/11/13 07:02:29;;;;;;;52.03;31.45;;;;;;;4.41;89.69;100289.03;2896091;81;21523;-74
2021/11/13 07:06:30;;;;;;;55.48;32.50;;;;;;;4.48;89.52;100291.31;2937599;81;21046;-75
2021/11/13 07:10:32;;;;;;;52.58;33.40;;;;;;;4.48;89.46;100292.62;2937425;81;21331;-75
2021/11/13 07:14:34;;;;;;;66.10;35.92;;;;;;;4.54;89.91;100290.98;2937628;81;20976;-75
2021/11/13 07:18:35;;;;;;;45.78;29.10;;;;;;;4.63;90.08;100291.77;2937734;81;21634;-74
2021/11/13 07:22:39;;;;;;;55.78;31.30;;;;;;;4.74;89.67;100285.05;2937869;81;20979;-75
2021/11/13 07:26:41;;;;;;;58.73;36.42;;;;;;;4.84;89.52;100288.83;2937886;81;20988;-75
2021/11/13 07:30:45;;;;;;;46.33;31.00;;;;;;;4.95;89.69;100286.44;2937638;81;21046;-75
2021/11/13 07:34:47;;;;;;;43.40;30.02;;;;;;;5.05;89.66;100286.75;2938009;81;21066;-75
2021/11/13 07:38:51;;;;;;;55.12;31.17;;;;;;;5.18;90.01;100280.73;2937835;81;21015;-75
2021/11/13 07:42:52;;;;;;;48.23;31.70;;;;;;;5.27;89.58;100281.03;2899920;81;21335;-74
2021/11/13 07:46:55;;;;;;;60.48;37.35;;;;;;;5.40;89.76;100268.43;2938565;81;21027;-75
2021/11/13 07:50:57;;;;;;;58.85;37.85;;;;;;;5.47;88.89;100267.11;2938357;81;21038;-75
2021/11/13 07:54:59;;;;;;;47.88;32.83;;;;;;;5.68;88.36;100260.13;2938106;81;20995;-75
2021/11/13 07:59:00;;;;;;;55.40;32.98;;;;;;;5.67;87.94;100258.44;2937782;81;21030;-75
2021/11/13 08:03:02;;;;;;;58.33;34.90;;;;;;;5.55;88.65;100257.41;2936215;81;21027;-75
2021/11/13 08:07:04;;;;;;;48.92;32.83;;;;;;;5.49;88.79;100252.52;2933948;81;21063;-74
2021/11/13 08:11:05;;;;;;;54.45;37.98;;;;;;;5.45;88.47;100249.69;2933562;81;21027;-74
2021/11/13 08:15:09;;;;;;;63.42;37.90;;;;;;;5.53;88.70;100254.88;2933592;81;21075;-74
2021/11/13 08:19:11;;;;;;;48.80;33.70;;;;;;;5.34;89.93;100256.45;2933347;81;21356;-74
2021/11/13 08:23:13;;;;;;;63.30;41.80;;;;;;;5.52;90.02;100247.91;2933889;81;21610;-74
2021/11/13 08:27:15;;;;;;;58.17;38.15;;;;;;;5.73;90.08;100246.20;2933882;81;21023;-74
2021/11/13 08:31:17;;;;;;;54.93;37.70;;;;;;;5.92;89.73;100241.09;2933774;81;20987;-75
2021/11/13 08:35:18;;;;;;;49.25;32.63;;;;;;;6.09;89.12;100245.32;2933690;81;21550;-74
2021/11/13 08:39:20;;;;;;;65.75;42.20;;;;;;;6.13;88.63;100242.39;2933812;81;20984;-75
2021/11/13 08:43:22;;;;;;;54.27;36.93;;;;;;;6.22;89.45;100238.77;2933659;81;20984;-75
2021/11/13 08:47:24;;;;;;;50.80;35.80;;;;;;;6.32;88.78;100247.81;2933790;81;21020;-75
2021/11/13 08:51:25;;;;;;;54.63;34.67;;;;;;;6.46;88.51;100245.59;2933840;81;21027;-75
2021/11/13 08:55:30;;;;;;;55.45;35.17;;;;;;;6.63;88.22;100239.19;2933842;81;20992;-75
2021/11/13 08:59:33;;;;;;;73.02;47.00;;;;;;;6.77;87.94;100239.58;2933833;81;21021;-75
2021/11/13 09:03:41;;;;;;;64.15;40.92;;;;;;;6.90;87.45;100245.38;2933827;80;21023;-74
2021/11/13 09:07:43;;;;;;;62.65;38.28;;;;;;;7.08;87.87;100240.66;2933884;81;21082;-75
2021/11/13 09:11:45;;;;;;;58.05;38.67;;;;;;;7.15;86.65;100237.95;2933621;81;21023;-74
2021/11/13 09:15:48;;;;;;;46.63;32.85;;;;;;;7.22;86.90;100243.19;2933926;81;21551;-74
2021/11/13 09:19:50;;;;;;;54.83;35.92;;;;;;;7.32;86.16;100245.22;2934143;81;21003;-74
2021/11/13 09:23:52;;;;;;;72.65;47.80;;;;;;;7.44;86.42;100247.00;2933829;80;21059;-75
2021/11/13 09:27:54;;;;;;;72.55;49.65;;;;;;;7.57;85.95;100247.84;2934276;81;21519;-75
2021/11/13 09:31:56;;;;;;;64.70;43.25;;;;;;;7.72;85.49;100251.70;2933954;81;21035;-74
2021/11/13 09:35:57;;;;;;;73.07;45.00;;;;;;;7.83;85.74;100242.50;2934226;81;21025;-75
2021/11/13 09:39:59;;;;;;;58.68;38.02;;;;;;;8.02;85.64;100244.33;2934407;81;21511;-74
2021/11/13 09:44:02;;;;;;;52.45;38.25;;;;;;;8.13;85.16;100240.41;2934179;81;21012;-75
2021/11/13 09:48:09;;;;;;;54.45;39.63;;;;;;;8.26;85.60;100243.04;2933964;81;21031;-75
2021/11/13 09:52:13;;;;;;;74.22;41.33;;;;;;;8.36;84.45;100245.37;2905173;81;21055;-74
2021/11/13 09:56:15;;;;;;;72.67;46.13;;;;;;;8.47;84.40;100242.42;2934694;81;21043;-74
2021/11/13 10:00:25;;;;;;;63.80;46.63;;;;;;;8.51;83.81;100240.77;2934587;81;20999;-74
2021/11/13 10:04:27;;;;;;;69.53;44.38;;;;;;;8.66;83.89;100232.17;2914423;80;21084;-74
2021/11/13 10:08:29;;;;;;;81.00;47.35;;;;;;;8.78;83.06;100233.52;2901297;81;21025;-74
2021/11/13 10:12:40;;;;;;;83.20;52.62;;;;;;;8.87;81.86;100231.52;2901647;81;21028;-74
2021/11/13 10:16:46;;;;;;;74.85;49.10;;;;;;;9.06;81.62;100230.12;2900612;81;21084;-75
2021/11/13 10:20:59;;;;;;;75.83;48.50;;;;;;;9.04;81.50;100231.55;2901415;81;21024;-75
2021/11/13 10:25:01;;;;;;;67.72;43.75;;;;;;;9.13;82.15;100237.95;2901495;82;21056;-75
2021/11/13 10:29:10;;;;;;;76.55;48.65;;;;;;;9.18;81.55;100230.98;2900991;81;21667;-74
2021/11/13 10:33:11;;;;;;;72.70;46.80;;;;;;;9.14;81.67;100227.24;2901398;81;21100;-75
2021/11/13 10:37:21;;;;;;;70.90;44.58;;;;;;;9.17;81.99;100228.80;2901449;81;21088;-74
2021/11/13 10:41:23;;;;;;;68.17;47.45;;;;;;;9.24;82.33;100234.48;2900468;82;21086;-74
2021/11/13 10:45:27;;;;;;;69.55;50.50;;;;;;;9.34;82.14;100225.32;2901636;82;21040;-74
2021/11/13 10:49:29;;;;;;;97.35;56.92;;;;;;;9.46;82.29;100228.83;2901609;81;21111;-75
2021/11/13 10:53:31;;;;;;;76.40;48.28;;;;;;;9.62;82.36;100225.80;2901634;81;21623;-75
2021/11/13 10:57:33;;;;;;;64.50;46.18;;;;;;;9.83;82.27;100216.16;2901648;82;21123;-75
2021/11/13 11:01:45;;;;;;;70.20;45.30;;;;;;;10.03;81.39;100215.03;2902064;82;21066;-75
2021/11/13 11:05:53;;;;;;;74.67;47.85;;;;;;;10.15;79.97;100208.70;2933665;80;21031;-75
2021/11/13 11:10:08;;;;;;;72.15;47.17;;;;;;;10.34;80.08;100211.19;2939238;81;21007;-75
2021/11/13 11:14:15;;;;;;;80.63;49.53;;;;;;;10.48;80.21;100209.24;2939244;81;20999;-74
2021/11/13 11:18:16;;;;;;;67.25;44.55;;;;;;;10.62;79.65;100200.11;2939274;81;21424;-76
2021/11/13 11:22:24;;;;;;;70.67;43.75;;;;;;;10.75;79.26;100207.90;2939265;81;21050;-75
2021/11/13 11:26:27;;;;;;;61.33;46.30;;;;;;;10.86;80.04;100212.67;2939008;81;21027;-74
2021/11/13 11:30:29;;;;;;;77.17;45.60;;;;;;;10.97;79.15;100206.44;2939651;81;21027;-75
2021/11/13 11:34:36;;;;;;;68.25;43.35;;;;;;;11.08;79.60;100198.03;2939644;81;21063;-74
2021/11/13 11:38:38;;;;;;;64.20;41.63;;;;;;;11.23;78.83;100199.86;2939627;80;21128;-75
2021/11/13 11:42:45;;;;;;;76.75;46.48;;;;;;;11.39;76.28;100186.05;2939846;81;20995;-75
2021/11/13 11:46:47;;;;;;;70.22;45.25;;;;;;;11.51;77.42;100192.98;2940219;81;20991;-75
2021/11/13 11:50:49;;;;;;;66.10;41.13;;;;;;;11.59;77.04;100198.98;2940694;81;21003;-73
2021/11/13 11:54:52;;;;;;;69.95;41.83;;;;;;;11.68;75.81;100193.33;2940735;81;21062;-76
2021/11/13 11:58:55;;;;;;;67.35;42.48;;;;;;;11.76;75.64;100192.15;2940644;81;21046;-74
2021/11/13 12:03:02;;;;;;;53.63;38.67;;;;;;;11.86;75.61;100187.70;2940296;80;21074;-73
2021/11/13 12:07:05;;;;;;;64.97;40.67;;;;;;;11.96;75.47;100186.86;2936228;81;21071;-76
2021/11/13 12:11:26;;;;;;;54.85;38.38;;;;;;;11.94;75.95;100188.83;2937119;81;20941;-75
2021/11/13 12:15:28;;;;;;;68.40;46.18;;;;;;;11.96;76.57;100182.87;2936796;81;20991;-76
2021/11/13 12:19:30;;;;;;;69.35;46.83;;;;;;;12.01;76.67;100190.02;2936750;81;21524;-75
2021/11/13 12:23:39;;;;;;;68.50;45.70;;;;;;;12.00;77.79;100182.97;2937243;81;21527;-76
2021/11/13 12:27:43;;;;;;;67.30;45.43;;;;;;;11.97;77.54;100180.55;2936263;80;21051;-75
2021/11/13 12:31:50;;;;;;;69.85;47.08;;;;;;;11.92;77.46;100179.66;2937035;80;21058;-76
2021/11/13 12:36:05;;;;;;;67.47;46.95;;;;;;;11.86;78.13;100182.38;2937059;81;21054;-75
2021/11/13 12:40:07;;;;;;;76.10;44.15;;;;;;;11.66;77.74;100179.30;2936823;81;21047;-76
2021/11/13 12:44:30;;;;;;;67.62;43.28;;;;;;;11.53;77.68;100191.03;2936817;81;21060;-75
2021/11/13 12:48:32;;;;;;;59.20;41.40;;;;;;;11.38;79.05;100197.69;2936412;81;21015;-73
2021/11/13 12:52:55;;;;;;;64.97;47.23;;;;;;;11.20;78.66;100193.48;2936718;81;21581;-74
2021/11/13 12:57:28;;;;;;;60.25;40.67;;;;;;;10.94;79.76;100193.90;2936510;81;21000;-75
2021/11/13 13:01:30;;;;;;;69.22;47.50;;;;;;;10.76;79.70;100197.61;2936118;80;20988;-75
2021/11/13 13:05:32;;;;;;;63.30;45.75;;;;;;;10.71;80.64;100194.86;2935792;80;20976;-75
2021/11/13 13:09:59;;;;;;;57.43;42.05;;;;;;;10.71;80.56;100193.53;2936327;81;20953;-75
2021/11/13 13:14:00;;;;;;;58.42;41.85;;;;;;;10.74;80.45;100206.21;2936386;81;21034;-76
2021/11/13 13:18:06;;;;;;;68.47;44.75;;;;;;;10.78;80.29;100203.64;2936721;81;21091;-75
2021/11/13 13:22:10;;;;;;;62.58;39.40;;;;;;;10.77;79.86;100201.48;2936643;81;21321;-73
2021/11/13 13:26:12;;;;;;;67.37;42.08;;;;;;;10.76;79.50;100205.59;2936537;81;21023;-75
2021/11/13 13:30:15;;;;;;;67.53;41.98;;;;;;;10.69;79.25;100204.79;2936508;81;21023;-76
2021/11/13 13:34:16;;;;;;;68.15;45.17;;;;;;;10.77;79.19;100203.29;2936470;81;20999;-76
2021/11/13 13:38:21;;;;;;;68.15;42.15;;;;;;;10.76;77.60;100197.14;2936081;81;21054;-75
2021/11/13 13:42:33;;;;;;;58.05;41.50;;;;;;;10.76;77.86;100201.13;2936493;81;21046;-75
2021/11/13 13:46:42;;;;;;;70.97;46.73;;;;;;;10.76;77.64;100208.25;2872213;81;21079;-75
2021/11/13 13:50:50;;;;;;;75.95;47.60;;;;;;;10.75;78.45;100202.11;2857598;83;21028;-76
2021/11/13 13:54:52;;;;;;;70.55;45.23;;;;;;;10.77;78.27;100189.98;2826762;84;20993;-76
2021/11/13 13:58:57;;;;;;;65.62;43.00;;;;;;;10.82;78.73;100196.61;2857474;83;21108;-73
2021/11/13 14:02:59;;;;;;;67.75;42.65;;;;;;;10.84;78.43;100194.66;2826742;84;21056;-76
2021/11/13 14:07:24;;;;;;;67.90;43.75;;;;;;;10.78;78.78;100200.98;2848638;83;21049;-75
2021/11/13 14:11:27;;;;;;;73.10;46.55;;;;;;;10.73;78.63;100203.20;2853234;83;21016;-75
2021/11/13 14:15:33;;;;;;;71.42;43.85;;;;;;;10.58;78.86;100210.15;2959392;80;21046;-75
2021/11/13 14:19:39;;;;;;;73.72;46.10;;;;;;;10.41;79.23;100201.75;2959504;80;21010;-76
2021/11/13 14:23:45;;;;;;;73.25;42.60;;;;;;;10.32;79.65;100216.25;2958789;80;21042;-74
2021/11/13 14:27:47;;;;;;;71.85;48.87;;;;;;;10.27;79.65;100216.16;2959363;80;21011;-75
2021/11/13 14:31:50;;;;;;;66.17;43.75;;;;;;;10.30;79.35;100223.05;2959384;80;20991;-75
2021/11/13 14:35:52;;;;;;;67.10;46.92;;;;;;;10.28;79.23;100219.17;2959528;80;21010;-75
2021/11/13 14:39:54;;;;;;;72.58;47.35;;;;;;;10.19;79.45;100219.94;2959547;80;21295;-75
2021/11/13 14:44:19;;;;;;;63.60;44.67;;;;;;;10.18;79.80;100216.92;2959539;80;21034;-73
2021/11/13 14:48:22;;;;;;;83.52;50.20;;;;;;;10.24;79.73;100213.75;2958817;80;21067;-75
2021/11/13 14:52:26;;;;;;;71.95;46.37;;;;;;;10.28;78.94;100218.34;2958918;80;21054;-75
2021/11/13 14:56:33;;;;;;;67.50;47.93;;;;;;;10.22;78.90;100212.17;2959144;79;21034;-75
2021/11/13 15:00:54;;;;;;;68.80;48.92;;;;;;;10.15;78.99;100215.34;2959342;80;21634;-75
2021/11/13 15:04:56;;;;;;;62.23;46.02;;;;;;;10.06;79.04;100218.77;2843920;83;21118;-75
2021/11/13 15:09:01;;;;;;;80.07;51.55;;;;;;;9.96;78.53;100217.80;2868895;82;21059;-74
2021/11/13 15:13:15;;;;;;;78.35;48.63;;;;;;;9.94;78.72;100209.97;2829958;84;21071;-75
2021/11/13 15:17:22;;;;;;;73.12;49.93;;;;;;;9.91;78.29;100206.70;2879157;82;21017;-75
2021/11/13 15:21:26;;;;;;;78.05;51.25;;;;;;;9.85;78.22;100211.55;2848639;83;21024;-75
2021/11/13 15:25:33;;;;;;;80.60;49.15;;;;;;;9.82;78.47;100213.10;2848445;83;21040;-75
2021/11/13 15:29:36;;;;;;;79.05;49.05;;;;;;;9.76;78.62;100208.29;2847887;83;21024;-75
2021/11/13 15:33:38;;;;;;;94.28;59.42;;;;;;;9.71;78.66;100213.14;2848234;83;21036;-75
2021/11/13 15:37:40;;;;;;;149.00;90.77;;;;;;;9.56;79.09;100219.19;2851457;83;21080;-75
2021/11/13 15:41:41;;;;;;;178.10;110.75;;;;;;;9.29;80.08;100217.70;2847707;83;21028;-75
2021/11/13 15:45:51;;;;;;;168.68;107.00;;;;;;;8.91;82.08;100222.83;2848143;83;21001;-74
2021/11/13 15:50:06;;;;;;;156.18;109.40;;;;;;;8.78;82.49;100228.22;2847794;83;21053;-75
2021/11/13 15:54:11;;;;;;;130.75;81.70;;;;;;;8.52;83.95;100230.52;2847648;83;21100;-75
2021/11/13 15:58:12;;;;;;;89.13;64.27;;;;;;;8.28;85.63;100228.70;2847371;83;21041;-74
2021/11/13 16:02:14;;;;;;;92.92;55.65;;;;;;;8.29;85.55;100222.44;2847730;83;21048;-75
2021/11/13 16:06:16;;;;;;;75.37;52.08;;;;;;;8.36;85.32;100225.48;2908594;80;21003;-75
2021/11/13 16:10:18;;;;;;;80.38;53.15;;;;;;;8.24;85.23;100228.56;2939793;81;21535;-73
2021/11/13 16:14:20;;;;;;;97.15;59.70;;;;;;;7.98;86.75;100229.12;2939745;81;21019;-74
2021/11/13 16:18:21;;;;;;;113.60;79.00;;;;;;;7.62;88.02;100238.73;2939886;81;20960;-74
2021/11/13 16:22:23;;;;;;;146.30;92.02;;;;;;;7.41;88.66;100248.08;2939825;81;21077;-74
2021/11/13 16:26:26;;;;;;;140.70;94.32;;;;;;;7.25;87.74;100250.91;2939289;81;21011;-75
2021/11/13 16:30:27;;;;;;;155.70;101.90;;;;;;;7.11;88.12;100251.03;2939016;81;21031;-73
2021/11/13 16:34:29;;;;;;;180.27;112.77;;;;;;;7.00;88.25;100255.23;2939258;81;21087;-74
2021/11/13 16:38:32;;;;;;;168.13;107.80;;;;;;;6.99;87.59;100254.03;2939378;81;21027;-75
2021/11/13 16:42:34;;;;;;;133.97;85.97;;;;;;;6.92;88.85;100253.59;2939724;81;21031;-74
2021/11/13 16:46:39;;;;;;;116.25;72.32;;;;;;;6.86;91.38;100264.09;2939335;81;21030;-73
2021/11/13 16:50:43;;;;;;;217.35;172.30;;;;;;;6.85;91.16;100259.77;2939361;81;21031;-75
2021/11/13 16:54:44;;;;;;;175.20;129.30;;;;;;;6.80;91.72;100265.84;2939018;81;21027;-74
2021/11/13 16:58:46;;;;;;;238.92;151.95;;;;;;;6.94;90.01;100269.34;2939218;81;21022;-74
2021/11/13 17:02:50;;;;;;;310.08;176.27;;;;;;;7.00;90.04;100272.42;2939153;81;21110;-74
2021/11/13 17:06:53;;;;;;;474.62;254.35;;;;;;;7.00;89.75;100268.95;2936011;80;20964;-74
2021/11/13 17:10:55;;;;;;;663.12;366.73;;;;;;;7.07;89.08;100264.06;2934077;81;21075;-74
2021/11/13 17:14:58;;;;;;;494.73;253.58;;;;;;;7.13;88.98;100273.77;2934147;81;21023;-74
2021/11/13 17:19:00;;;;;;;517.25;271.05;;;;;;;7.17;88.70;100271.77;2934238;81;21011;-75
2021/11/13 17:23:02;;;;;;;229.18;121.90;;;;;;;7.25;88.42;100273.40;2934325;81;21051;-74
2021/11/13 17:27:04;;;;;;;149.57;81.97;;;;;;;7.04;89.44;100282.33;2934031;81;21051;-75
2021/11/13 17:31:06;;;;;;;186.28;116.40;;;;;;;6.88;89.99;100277.69;2934234;81;21059;-74
2021/11/13 17:35:12;;;;;;;258.57;167.65;;;;;;;6.76;90.40;100282.00;2933773;81;21062;-75
2021/11/13 17:39:13;;;;;;;218.63;140.47;;;;;;;6.81;89.74;100280.75;2933931;81;21713;-73
2021/11/13 17:43:14;;;;;;;296.48;169.07;;;;;;;6.81;89.67;100279.43;2934027;80;21385;-74
2021/11/13 17:47:16;;;;;;;290.82;178.35;;;;;;;6.91;89.23;100282.31;2933489;81;20960;-74
2021/11/13 17:51:18;;;;;;;296.87;172.37;;;;;;;7.09;89.21;100288.16;2933650;81;21552;-74
2021/11/13 17:55:21;;;;;;;313.40;154.18;;;;;;;7.28;88.22;100282.48;2934066;81;21016;-75
2021/11/13 17:59:23;;;;;;;256.77;138.50;;;;;;;7.43;87.66;100291.63;2934097;81;21032;-74
2021/11/13 18:03:28;;;;;;;144.87;81.87;;;;;;;7.35;86.36;100296.11;2933989;81;21035;-75
2021/11/13 18:07:33;;;;;;;123.07;77.32;;;;;;;7.21;86.37;100298.37;2954734;80;21535;-74
2021/11/13 18:11:37;;;;;;;177.90;106.55;;;;;;;7.00;87.11;100298.88;2961674;80;21011;-73
2021/11/13 18:15:39;;;;;;;195.32;116.93;;;;;;;6.89;87.24;100294.79;2961496;80;20991;-74
2021/11/13 18:19:40;;;;;;;298.25;182.97;;;;;;;6.78;87.42;100288.03;2961657;80;21065;-74
2021/11/13 18:23:42;;;;;;;228.60;128.85;;;;;;;6.69;87.73;100289.48;2961175;80;21113;-74
2021/11/13 18:27:44;;;;;;;186.90;114.25;;;;;;;6.55;88.20;100297.83;2961240;80;21085;-73
2021/11/13 18:31:46;;;;;;;232.18;149.75;;;;;;;6.45;88.51;100294.10;2961176;80;21597;-74
2021/11/13 18:35:49;;;;;;;217.18;124.22;;;;;;;6.41;88.38;100293.44;2931032;80;21061;-74
2021/11/13 18:39:51;;;;;;;345.70;194.25;;;;;;;6.26;89.09;100299.24;2961833;80;21011;-74